CheckWX is a tool to help pilots better visualize weather data.  It is not intended as a substitute for an official pre-flight weather briefing.

10:41:16 UTC

KHZY METAR
Northeast Ohio Regional Airport
Ashtabula, Ohio, USA
Current

48 mins ago

KHZY 260953Z AUTO 18011KT 10SM FEW010 BKN015 OVC022 15/14 A2938 RMK AO2 SLP944 T01500139
Observed
Apr-26 @ 09:53 UTC
Wind
  • 180° at 11 KTS
Visibility
10 SM
Flight Rules
MVFR
Cloud Levels
  • Few at 1,000' AGL
  • Broken at 1,500' AGL
  • Overcast at 2,200' AGL
Temperature
15°C / 59°F
Dewpoint
14°C / 57°F
Humidity
94%
Altimeter
29.38" Hg
Pressure
994.92 hPa
Previous

1 hour ago

KHZY 260912Z AUTO 18011G20KT 10SM SCT018 BKN026 OVC085 15/14 A2940 RMK AO2 T01500139
Observed
Apr-26 @ 09:12 UTC
Wind
  • 180° at 11 KTS
  • Gusting to 20 KTS
Visibility
10 SM
Flight Rules
MVFR
Cloud Levels
  • Scattered at 1,800' AGL
  • Broken at 2,600' AGL
  • Overcast at 8,500' AGL
Temperature
15°C / 59°F
Dewpoint
14°C / 57°F
Humidity
94%
Altimeter
29.4" Hg
Pressure
995.62 hPa
Previous

2 hours ago

KHZY 260853Z AUTO 17013G18KT 10SM FEW043 BKN085 OVC100 15/14 A2941 RMK AO2 RAE01 SLP954 P0000 60011 T01500139 56057
Observed
Apr-26 @ 08:53 UTC
Wind
  • 170° at 13 KTS
  • Gusting to 18 KTS
Visibility
10 SM
Flight Rules
VFR
Cloud Levels
  • Few at 4,300' AGL
  • Broken at 8,500' AGL
  • Overcast at 10,000' AGL
Temperature
15°C / 59°F
Dewpoint
14°C / 57°F
Humidity
94%
Altimeter
29.41" Hg
Pressure
995.92 hPa
Current Rain
0.01"